createdAt,value
2016-11-10T00:00:11.180Z,981.13
2016-11-10T00:01:19.865Z,981.12
2016-11-10T00:02:28.592Z,981.12
2016-11-10T00:03:37.283Z,981.09
2016-11-10T00:04:45.968Z,981.09
2016-11-10T00:05:54.654Z,981.09
2016-11-10T00:07:03.341Z,981.05
2016-11-10T00:08:12.027Z,981.04
2016-11-10T00:09:20.713Z,981.06
2016-11-10T00:10:29.402Z,981.05
2016-11-10T00:11:38.085Z,981.06
2016-11-10T00:12:46.770Z,981.03
2016-11-10T00:13:55.456Z,981.05
2016-11-10T00:15:04.139Z,981.07
2016-11-10T00:16:12.823Z,981.09
2016-11-10T00:17:21.510Z,981.09
2016-11-10T00:18:30.198Z,981.09
2016-11-10T00:19:38.884Z,981.12
2016-11-10T00:20:47.598Z,981.09
2016-11-10T00:21:56.284Z,981.12
2016-11-10T00:23:04.970Z,981.11
2016-11-10T00:24:13.657Z,981.12
2016-11-10T00:25:22.339Z,981.12
2016-11-10T00:26:31.023Z,981.08
2016-11-10T00:27:39.707Z,981.09
2016-11-10T00:28:48.391Z,981.07
2016-11-10T00:29:57.389Z,981.07
2016-11-10T00:31:06.077Z,981.09
2016-11-10T00:32:14.760Z,981.07
2016-11-10T00:33:23.452Z,981.03
2016-11-10T00:34:32.138Z,981.03
2016-11-10T00:35:40.821Z,980.98
2016-11-10T00:36:49.821Z,980.98
2016-11-10T00:37:58.504Z,981
2016-11-10T00:39:07.196Z,980.97
2016-11-10T00:40:15.878Z,980.95
2016-11-10T00:41:24.562Z,980.9
2016-11-10T00:42:33.247Z,980.89
2016-11-10T00:43:41.933Z,980.89
2016-11-10T00:44:50.620Z,980.93
2016-11-10T00:45:59.308Z,981.01
2016-11-10T00:47:07.995Z,980.99
2016-11-10T00:48:16.683Z,981
2016-11-10T00:49:25.375Z,981.01
2016-11-10T00:50:34.062Z,981.01
2016-11-10T00:51:42.795Z,981
2016-11-10T00:52:51.483Z,981.02
2016-11-10T00:54:00.174Z,981.03
2016-11-10T00:55:08.860Z,981.07
2016-11-10T00:56:17.547Z,981.06
2016-11-10T00:57:26.237Z,981.09
2016-11-10T00:58:34.926Z,981.09
2016-11-10T00:59:43.616Z,981.15
2016-11-10T01:00:52.300Z,981.1
2016-11-10T01:02:01.014Z,981.1
2016-11-10T01:03:09.696Z,981.08
2016-11-10T01:04:18.382Z,981.09
2016-11-10T01:05:27.386Z,981.1
2016-11-10T01:06:36.108Z,981.12
2016-11-10T01:07:44.801Z,981.14
2016-11-10T01:08:53.804Z,981.1
2016-11-10T01:10:02.492Z,981.11
2016-11-10T01:11:11.179Z,981.09
2016-11-10T01:12:19.866Z,981.09
2016-11-10T01:13:28.551Z,981.1
2016-11-10T01:14:37.242Z,981.08
2016-11-10T01:15:45.930Z,981.09
2016-11-10T01:16:54.656Z,981.04
2016-11-10T01:18:03.348Z,981.07
2016-11-10T01:19:12.037Z,981.04
2016-11-10T01:20:20.766Z,981.04
2016-11-10T01:21:29.456Z,981.06
2016-11-10T01:22:38.148Z,981
2016-11-10T01:23:46.842Z,980.98
2016-11-10T01:24:55.528Z,981.05
2016-11-10T01:26:04.215Z,981
2016-11-10T01:27:12.898Z,981.01
2016-11-10T01:28:21.587Z,980.98
2016-11-10T01:29:30.272Z,980.96
2016-11-10T01:30:38.957Z,980.92
2016-11-10T01:31:47.639Z,980.94
2016-11-10T01:32:56.331Z,980.92
2016-11-10T01:34:05.017Z,980.93
2016-11-10T01:35:14.018Z,980.92
2016-11-10T01:36:22.707Z,980.89
2016-11-10T01:37:31.393Z,980.88
2016-11-10T01:38:40.079Z,980.91
2016-11-10T01:39:48.765Z,980.92
2016-11-10T01:40:57.452Z,980.95
2016-11-10T01:42:06.156Z,980.97
2016-11-10T01:43:15.162Z,980.96
2016-11-10T01:44:23.844Z,980.98
2016-11-10T01:45:32.532Z,980.97
2016-11-10T01:46:41.212Z,980.99
2016-11-10T01:47:49.895Z,980.97
2016-11-10T01:48:58.578Z,980.98
2016-11-10T01:50:07.305Z,980.98
2016-11-10T01:51:15.989Z,980.96
2016-11-10T01:52:24.683Z,980.95
2016-11-10T01:53:33.411Z,980.97
2016-11-10T01:54:42.093Z,980.92
2016-11-10T01:55:50.782Z,980.95
2016-11-10T01:56:59.477Z,980.93
2016-11-10T01:58:08.163Z,980.89
2016-11-10T01:59:16.855Z,980.9
2016-11-10T02:00:25.539Z,980.91
2016-11-10T02:01:34.225Z,980.86
2016-11-10T02:02:42.911Z,980.87
2016-11-10T02:03:51.599Z,980.88
2016-11-10T02:05:00.281Z,980.85
2016-11-10T02:06:08.968Z,980.91
2016-11-10T02:07:17.667Z,980.89
2016-11-10T02:08:26.351Z,980.9
2016-11-10T02:09:35.038Z,980.89
2016-11-10T02:10:43.718Z,980.91
2016-11-10T02:11:52.402Z,980.92
2016-11-10T02:13:01.094Z,980.9
2016-11-10T02:14:09.789Z,980.94
2016-11-10T02:15:18.476Z,980.92
2016-11-10T02:16:27.201Z,980.98
2016-11-10T02:17:35.892Z,980.96
2016-11-10T02:18:44.581Z,980.92
2016-11-10T02:19:53.300Z,980.93
2016-11-10T02:21:01.990Z,980.91
2016-11-10T02:22:10.675Z,980.89
2016-11-10T02:23:19.371Z,980.94
2016-11-10T02:24:28.058Z,980.86
2016-11-10T02:25:36.743Z,980.87
2016-11-10T02:26:45.434Z,980.92
2016-11-10T02:27:54.117Z,980.92
2016-11-10T02:29:02.803Z,980.86
2016-11-10T02:30:11.487Z,980.89
2016-11-10T02:31:20.172Z,980.86
2016-11-10T02:32:28.861Z,980.89
2016-11-10T02:33:37.554Z,980.86
2016-11-10T02:34:46.241Z,980.87
2016-11-10T02:35:54.926Z,980.85
2016-11-10T02:37:03.610Z,980.88
2016-11-10T02:38:12.330Z,980.86
2016-11-10T02:39:21.015Z,980.88
2016-11-10T02:40:29.701Z,980.9
2016-11-10T02:41:38.407Z,980.89
2016-11-10T02:42:47.092Z,980.88
2016-11-10T02:43:55.781Z,980.9
2016-11-10T02:45:04.473Z,980.88
2016-11-10T02:46:13.160Z,980.84
2016-11-10T02:47:21.874Z,980.85
2016-11-10T02:48:30.562Z,980.84
2016-11-10T02:49:39.248Z,980.82
2016-11-10T02:50:47.939Z,980.8
2016-11-10T02:51:56.629Z,980.85
2016-11-10T02:53:05.313Z,980.85
2016-11-10T02:54:13.999Z,980.83
2016-11-10T02:55:22.687Z,980.83
2016-11-10T02:56:31.375Z,980.84
2016-11-10T02:57:40.060Z,980.88
2016-11-10T02:58:48.754Z,980.82
2016-11-10T02:59:57.440Z,980.75
2016-11-10T03:01:06.151Z,980.81
2016-11-10T03:02:15.155Z,980.74
2016-11-10T03:03:23.840Z,980.75
2016-11-10T03:04:32.528Z,980.79
2016-11-10T03:05:41.220Z,980.79
2016-11-10T03:06:49.905Z,980.77
2016-11-10T03:07:58.587Z,980.73
2016-11-10T03:09:07.293Z,980.75
2016-11-10T03:10:15.988Z,980.73
2016-11-10T03:11:25.025Z,980.77
2016-11-10T03:12:33.715Z,980.72
2016-11-10T03:13:42.406Z,980.78
2016-11-10T03:14:51.402Z,980.76
2016-11-10T03:16:00.097Z,980.76
2016-11-10T03:17:08.783Z,980.76
2016-11-10T03:18:17.463Z,980.76
2016-11-10T03:19:26.152Z,980.71
2016-11-10T03:20:34.837Z,980.76
2016-11-10T03:21:43.569Z,980.76
2016-11-10T03:22:52.255Z,980.75
2016-11-10T03:24:00.961Z,980.71
2016-11-10T03:25:09.646Z,980.73
2016-11-10T03:26:18.328Z,980.76
2016-11-10T03:27:27.011Z,980.79
2016-11-10T03:28:35.732Z,980.76
2016-11-10T03:29:44.420Z,980.78
2016-11-10T03:30:53.147Z,980.8
2016-11-10T03:32:01.829Z,980.79
2016-11-10T03:33:10.512Z,980.86
2016-11-10T03:34:19.226Z,980.84
2016-11-10T03:35:27.914Z,980.87
2016-11-10T03:36:36.605Z,980.86
2016-11-10T03:37:45.606Z,980.91
2016-11-10T03:38:54.291Z,980.82
2016-11-10T03:40:02.974Z,980.92
2016-11-10T03:41:11.972Z,980.92
2016-11-10T03:42:20.656Z,980.87
2016-11-10T03:43:29.348Z,980.91
2016-11-10T03:44:38.034Z,980.91
2016-11-10T03:45:46.718Z,980.9
2016-11-10T03:46:55.408Z,980.95
2016-11-10T03:48:04.095Z,980.98
2016-11-10T03:49:12.794Z,980.96
2016-11-10T03:50:21.480Z,980.92
2016-11-10T03:51:30.166Z,980.95
2016-11-10T03:52:38.896Z,980.93
2016-11-10T03:53:47.581Z,980.94
2016-11-10T03:54:56.261Z,980.88
2016-11-10T03:56:05.274Z,980.96
2016-11-10T03:57:14.282Z,980.96
2016-11-10T03:58:22.967Z,980.92
2016-11-10T03:59:31.653Z,980.91
2016-11-10T04:00:40.344Z,980.92
2016-11-10T04:01:49.033Z,980.93
2016-11-10T04:02:57.718Z,980.91
2016-11-10T04:04:06.410Z,980.94
2016-11-10T04:05:15.126Z,980.9
2016-11-10T04:06:23.813Z,980.94
2016-11-10T04:07:32.499Z,980.92
2016-11-10T04:08:41.540Z,980.93
2016-11-10T04:09:50.229Z,980.96
2016-11-10T04:10:58.913Z,980.94
2016-11-10T04:12:07.629Z,980.94
2016-11-10T04:13:16.311Z,980.94
2016-11-10T04:14:24.998Z,980.99
2016-11-10T04:15:33.681Z,980.96
2016-11-10T04:16:42.374Z,980.98
2016-11-10T04:17:51.061Z,980.94
2016-11-10T04:18:59.780Z,980.96
2016-11-10T04:20:08.478Z,980.95
2016-11-10T04:21:17.167Z,980.92
2016-11-10T04:22:25.859Z,980.94
2016-11-10T04:23:34.543Z,980.91
2016-11-10T04:24:43.230Z,980.89
2016-11-10T04:25:51.923Z,980.83
2016-11-10T04:27:00.608Z,980.82
2016-11-10T04:28:09.298Z,980.81
2016-11-10T04:29:17.985Z,980.83
2016-11-10T04:30:26.675Z,980.86
2016-11-10T04:31:35.362Z,980.83
2016-11-10T04:32:44.057Z,980.87
2016-11-10T04:33:52.743Z,980.84
2016-11-10T04:35:01.428Z,980.86
2016-11-10T04:36:10.119Z,980.87
2016-11-10T04:37:18.805Z,980.95
2016-11-10T04:38:27.807Z,980.94
2016-11-10T04:39:36.491Z,980.94
2016-11-10T04:40:45.175Z,980.95
2016-11-10T04:41:53.871Z,980.96
2016-11-10T04:43:02.561Z,980.97
2016-11-10T04:44:11.249Z,980.93
2016-11-10T04:45:19.966Z,980.93
2016-11-10T04:46:28.651Z,980.94
2016-11-10T04:47:37.373Z,980.93
2016-11-10T04:48:46.062Z,980.93
2016-11-10T04:49:54.747Z,980.92
2016-11-10T04:51:03.748Z,980.96
2016-11-10T04:52:12.431Z,980.91
2016-11-10T04:53:21.117Z,980.9
2016-11-10T04:54:29.805Z,980.97
2016-11-10T04:55:38.490Z,980.92
2016-11-10T04:56:47.173Z,980.9
2016-11-10T04:57:55.855Z,980.95
2016-11-10T04:59:04.540Z,980.93
2016-11-10T05:00:13.224Z,980.95
2016-11-10T05:01:21.908Z,980.96
2016-11-10T05:02:30.591Z,980.95
2016-11-10T05:03:39.281Z,980.91
2016-11-10T05:04:47.967Z,980.94
2016-11-10T05:05:56.651Z,980.98
2016-11-10T05:07:05.340Z,980.99
2016-11-10T05:08:14.027Z,980.99
2016-11-10T05:09:22.716Z,980.98
2016-11-10T05:10:31.403Z,980.97
2016-11-10T05:11:40.093Z,981.01
2016-11-10T05:12:48.774Z,981.04
2016-11-10T05:13:57.459Z,981
2016-11-10T05:15:06.177Z,981.02
2016-11-10T05:16:14.861Z,981.02
2016-11-10T05:17:23.548Z,981.06
2016-11-10T05:18:32.235Z,981.08
2016-11-10T05:19:40.923Z,981.07
2016-11-10T05:20:49.609Z,981.07
2016-11-10T05:21:58.295Z,981.13
2016-11-10T05:23:06.980Z,981.14
2016-11-10T05:24:15.668Z,981.09
2016-11-10T05:25:24.358Z,981.14
2016-11-10T05:26:33.052Z,981.12
2016-11-10T05:27:41.759Z,981.14
2016-11-10T05:28:50.443Z,981.16
2016-11-10T05:29:59.127Z,981.17
2016-11-10T05:31:07.822Z,981.17
2016-11-10T05:32:16.508Z,981.16
2016-11-10T05:33:25.191Z,981.16
2016-11-10T05:34:33.875Z,981.18
2016-11-10T05:35:42.881Z,981.19
2016-11-10T05:36:51.567Z,981.21
2016-11-10T05:38:00.260Z,981.18
2016-11-10T05:39:08.946Z,981.25
2016-11-10T05:40:17.649Z,981.22
2016-11-10T05:41:26.338Z,981.21
2016-11-10T05:42:35.028Z,981.24
2016-11-10T05:43:43.745Z,981.25
2016-11-10T05:44:52.433Z,981.28
2016-11-10T05:46:01.120Z,981.25
2016-11-10T05:47:09.807Z,981.27
2016-11-10T05:48:18.497Z,981.3
2016-11-10T05:49:27.183Z,981.32
2016-11-10T05:50:35.870Z,981.32
2016-11-10T05:51:44.561Z,981.32
2016-11-10T05:52:53.245Z,981.38
2016-11-10T05:54:01.927Z,981.38
2016-11-10T05:55:10.608Z,981.39
2016-11-10T05:56:19.317Z,981.41
2016-11-10T05:57:28.004Z,981.45
2016-11-10T05:58:36.692Z,981.42
2016-11-10T05:59:45.389Z,981.42
2016-11-10T06:00:54.079Z,981.43
2016-11-10T06:02:02.765Z,981.42
2016-11-10T06:03:11.452Z,981.45
2016-11-10T06:04:20.137Z,981.44
2016-11-10T06:05:28.823Z,981.38
2016-11-10T06:06:37.511Z,981.38
2016-11-10T06:07:46.233Z,981.41
2016-11-10T06:08:54.933Z,981.4
2016-11-10T06:10:03.621Z,981.46
2016-11-10T06:11:12.312Z,981.49
2016-11-10T06:12:20.995Z,981.44
2016-11-10T06:13:29.730Z,981.46
2016-11-10T06:14:38.424Z,981.49
2016-11-10T06:15:47.113Z,981.53
2016-11-10T06:16:55.795Z,981.49
2016-11-10T06:18:04.478Z,981.48
2016-11-10T06:19:13.165Z,981.55
2016-11-10T06:20:21.852Z,981.51
2016-11-10T06:21:30.551Z,981.57
2016-11-10T06:22:39.237Z,981.59
2016-11-10T06:23:47.920Z,981.61
2016-11-10T06:24:56.614Z,981.59
2016-11-10T06:26:05.300Z,981.59
2016-11-10T06:27:13.984Z,981.56
2016-11-10T06:28:22.670Z,981.59
2016-11-10T06:29:31.359Z,981.58
2016-11-10T06:30:40.051Z,981.6
2016-11-10T06:31:49.067Z,981.58
2016-11-10T06:32:57.753Z,981.62
2016-11-10T06:34:06.439Z,981.57
2016-11-10T06:35:15.181Z,981.64
2016-11-10T06:36:24.551Z,981.65
2016-11-10T06:37:33.534Z,981.64
2016-11-10T06:38:42.622Z,981.69
2016-11-10T06:39:51.596Z,981.74
2016-11-10T06:41:00.597Z,981.76
2016-11-10T06:42:09.552Z,981.75
2016-11-10T06:43:18.239Z,981.75
2016-11-10T06:44:26.923Z,981.76
2016-11-10T06:45:35.610Z,981.82
2016-11-10T06:46:44.330Z,981.86
2016-11-10T06:47:53.124Z,981.83
2016-11-10T06:49:01.818Z,981.88
2016-11-10T06:50:10.513Z,981.89
2016-11-10T06:51:19.507Z,981.93
2016-11-10T06:52:28.196Z,981.96
2016-11-10T06:53:36.889Z,981.96
2016-11-10T06:54:45.895Z,981.96
2016-11-10T06:55:54.584Z,981.98
2016-11-10T06:57:03.282Z,981.99
2016-11-10T06:58:11.996Z,982.05
2016-11-10T06:59:20.683Z,982.07
2016-11-10T07:00:29.385Z,982.1
2016-11-10T07:01:38.085Z,982.09
2016-11-10T07:02:46.784Z,982.13
2016-11-10T07:03:55.468Z,982.12
2016-11-10T07:05:04.152Z,982.11
2016-11-10T07:06:12.848Z,982.12
2016-11-10T07:07:21.534Z,982.16
2016-11-10T07:08:30.641Z,982.21
2016-11-10T07:09:39.354Z,982.18
2016-11-10T07:10:48.077Z,982.2
2016-11-10T07:11:56.761Z,982.21
2016-11-10T07:13:05.448Z,982.29
2016-11-10T07:14:14.136Z,982.27
2016-11-10T07:15:22.830Z,982.31
2016-11-10T07:16:31.513Z,982.35
2016-11-10T07:17:40.196Z,982.34
2016-11-10T07:18:48.889Z,982.33
2016-11-10T07:19:57.591Z,982.35
2016-11-10T07:21:06.589Z,982.35
2016-11-10T07:23:39.879Z,982.39
2016-11-10T07:24:48.742Z,982.37
2016-11-10T07:25:57.501Z,982.39
2016-11-10T07:27:06.188Z,982.36
2016-11-10T07:28:14.875Z,982.36
2016-11-10T07:29:23.566Z,982.32
2016-11-10T07:30:32.257Z,982.32
2016-11-10T07:31:40.948Z,982.32
2016-11-10T07:32:49.632Z,982.35
2016-11-10T07:33:58.387Z,982.37
2016-11-10T07:35:07.079Z,982.34
2016-11-10T07:36:15.770Z,982.41
2016-11-10T07:37:24.466Z,982.44
2016-11-10T07:38:33.152Z,982.43
2016-11-10T07:39:41.841Z,982.43
2016-11-10T07:40:50.849Z,982.46
2016-11-10T07:41:59.542Z,982.53
2016-11-10T07:43:08.226Z,982.5
2016-11-10T07:44:16.909Z,982.54
2016-11-10T07:45:25.596Z,982.52
2016-11-10T07:46:34.305Z,982.54
2016-11-10T07:47:43.004Z,982.61
2016-11-10T07:48:51.691Z,982.56
2016-11-10T07:50:00.379Z,982.61
2016-11-10T07:51:09.072Z,982.61
2016-11-10T07:52:17.760Z,982.6
2016-11-10T07:53:26.445Z,982.65
2016-11-10T07:54:35.135Z,982.68
2016-11-10T07:55:43.819Z,982.67
2016-11-10T07:56:52.500Z,982.7
2016-11-10T07:58:01.188Z,982.77
2016-11-10T07:59:09.873Z,982.8
2016-11-10T08:00:18.564Z,982.8
2016-11-10T08:01:27.254Z,982.86
2016-11-10T08:02:35.947Z,982.89
2016-11-10T08:03:44.634Z,982.88
2016-11-10T08:04:53.322Z,982.86
2016-11-10T08:06:02.012Z,982.94
2016-11-10T08:07:10.701Z,982.99
2016-11-10T08:08:19.388Z,982.95
2016-11-10T08:09:28.112Z,982.99
2016-11-10T08:10:36.796Z,983.04
2016-11-10T08:11:45.487Z,983
2016-11-10T08:12:54.172Z,982.97
2016-11-10T08:14:02.909Z,983
2016-11-10T08:15:11.910Z,983
2016-11-10T08:16:20.595Z,983.06
2016-11-10T08:17:29.281Z,983.09
2016-11-10T08:18:38.006Z,983.13
2016-11-10T08:19:46.694Z,983.11
2016-11-10T08:20:55.380Z,983.12
2016-11-10T08:22:04.071Z,983.15
2016-11-10T08:23:12.759Z,983.13
2016-11-10T08:24:21.444Z,983.1
2016-11-10T08:25:30.130Z,983.12
2016-11-10T08:26:38.817Z,983.11
2016-11-10T08:27:47.505Z,983.11
2016-11-10T08:28:56.189Z,983.13
2016-11-10T08:30:04.892Z,983.13
2016-11-10T08:31:13.581Z,983.15
2016-11-10T08:32:22.269Z,983.11
2016-11-10T08:33:30.956Z,983.11
2016-11-10T08:34:39.647Z,983.11
2016-11-10T08:35:48.372Z,983.14
2016-11-10T08:36:57.107Z,983.17
2016-11-10T08:38:05.830Z,983.15
2016-11-10T08:39:14.843Z,983.17
2016-11-10T08:40:23.533Z,983.17
2016-11-10T08:41:32.221Z,983.17
2016-11-10T08:42:40.913Z,983.22
2016-11-10T08:43:49.633Z,983.2
2016-11-10T08:44:58.333Z,983.2
2016-11-10T08:46:07.042Z,983.23
2016-11-10T08:47:15.731Z,983.22
2016-11-10T08:48:24.418Z,983.25
2016-11-10T08:49:33.113Z,983.24
2016-11-10T08:50:42.116Z,983.24
2016-11-10T08:51:50.814Z,983.26
2016-11-10T08:52:59.505Z,983.29
2016-11-10T08:54:08.196Z,983.28
2016-11-10T08:55:16.887Z,983.32
2016-11-10T08:56:25.573Z,983.31
2016-11-10T08:57:34.261Z,983.32
2016-11-10T08:58:42.953Z,983.33
2016-11-10T08:59:51.640Z,983.42
2016-11-10T09:01:00.332Z,983.37
2016-11-10T09:02:09.047Z,983.39
2016-11-10T09:03:17.743Z,983.4
2016-11-10T09:04:26.436Z,983.44
2016-11-10T09:05:35.124Z,983.46
2016-11-10T09:06:44.164Z,983.46
2016-11-10T09:07:52.854Z,983.46
2016-11-10T09:09:01.541Z,983.48
2016-11-10T09:10:10.236Z,983.49
2016-11-10T09:11:18.925Z,983.45
2016-11-10T09:12:27.614Z,983.49
2016-11-10T09:13:36.627Z,983.47
2016-11-10T09:14:45.314Z,983.51
2016-11-10T09:15:54.006Z,983.56
2016-11-10T09:17:02.697Z,983.53
2016-11-10T09:18:11.415Z,983.57
2016-11-10T09:19:20.111Z,983.55
2016-11-10T09:20:28.802Z,983.56
2016-11-10T09:21:37.489Z,983.56
2016-11-10T09:22:46.177Z,983.57
2016-11-10T09:23:54.865Z,983.6
2016-11-10T09:25:03.579Z,983.65
2016-11-10T09:26:12.266Z,983.65
2016-11-10T09:27:20.954Z,983.67
2016-11-10T09:28:29.641Z,983.61
2016-11-10T09:29:38.334Z,983.64
2016-11-10T09:30:47.019Z,983.67
2016-11-10T09:31:55.731Z,983.65
2016-11-10T09:33:04.418Z,983.65
2016-11-10T09:34:13.116Z,983.66
2016-11-10T09:35:21.808Z,983.67
2016-11-10T09:36:30.809Z,983.7
2016-11-10T09:37:39.499Z,983.68
2016-11-10T09:38:48.187Z,983.67
2016-11-10T09:39:56.927Z,983.68
2016-11-10T09:41:05.611Z,983.68
2016-11-10T09:42:14.304Z,983.74
2016-11-10T09:43:22.997Z,983.72
2016-11-10T09:44:31.680Z,983.75
2016-11-10T09:45:40.366Z,983.76
2016-11-10T09:46:49.053Z,983.77
2016-11-10T09:47:57.739Z,983.82
2016-11-10T09:49:06.427Z,983.8
2016-11-10T09:50:15.112Z,983.81
2016-11-10T09:51:23.900Z,983.81
2016-11-10T09:52:32.584Z,983.88
2016-11-10T09:53:41.276Z,983.87
2016-11-10T09:54:49.965Z,983.85
2016-11-10T09:55:58.655Z,983.84
2016-11-10T09:57:07.721Z,983.84
2016-11-10T09:58:16.410Z,983.88
2016-11-10T09:59:25.094Z,983.91
2016-11-10T10:00:33.781Z,983.91
2016-11-10T10:01:42.466Z,983.92
2016-11-10T10:02:51.402Z,983.95
2016-11-10T10:04:00.412Z,984.01
2016-11-10T10:05:09.099Z,983.97
2016-11-10T10:06:17.791Z,984
2016-11-10T10:07:26.509Z,983.99
2016-11-10T10:08:35.199Z,984.04
2016-11-10T10:09:43.903Z,984.09
2016-11-10T10:10:52.588Z,984.06
2016-11-10T10:12:01.302Z,984.1
2016-11-10T10:13:09.991Z,984.13
2016-11-10T10:14:19.009Z,984.15
2016-11-10T10:15:27.696Z,984.15
2016-11-10T10:16:36.398Z,984.14
2016-11-10T10:17:45.091Z,984.16
2016-11-10T10:18:53.775Z,984.17
2016-11-10T10:20:02.467Z,984.2
2016-11-10T10:21:11.154Z,984.21
2016-11-10T10:22:19.845Z,984.18
2016-11-10T10:23:28.534Z,984.2
2016-11-10T10:24:37.259Z,984.13
2016-11-10T10:25:45.979Z,984.16
2016-11-10T10:26:54.674Z,984.13
2016-11-10T10:28:03.364Z,984.07
2016-11-10T10:29:12.051Z,984.08
2016-11-10T10:30:20.775Z,984.12
2016-11-10T10:31:29.463Z,984.12
2016-11-10T10:32:38.168Z,984.13
2016-11-10T10:33:46.859Z,984.14
2016-11-10T10:34:55.546Z,984.12
2016-11-10T10:36:04.231Z,984.06
2016-11-10T10:37:12.920Z,984.13
2016-11-10T10:38:21.606Z,984.12
2016-11-10T10:39:30.303Z,984.13
2016-11-10T10:40:39.661Z,984.16
2016-11-10T10:41:48.347Z,984.17
2016-11-10T10:42:57.034Z,984.2
2016-11-10T10:44:05.719Z,984.17
2016-11-10T10:45:14.406Z,984.2
2016-11-10T10:46:23.098Z,984.27
2016-11-10T10:47:31.786Z,984.22
2016-11-10T10:48:40.474Z,984.25
2016-11-10T10:49:49.177Z,984.25
2016-11-10T10:50:57.868Z,984.32
2016-11-10T10:52:06.560Z,984.29
2016-11-10T10:53:15.252Z,984.26
2016-11-10T10:54:23.950Z,984.34
2016-11-10T10:55:32.636Z,984.27
2016-11-10T10:56:41.327Z,984.31
2016-11-10T10:57:50.012Z,984.26
2016-11-10T10:58:59.083Z,984.24
2016-11-10T11:00:07.772Z,984.26
2016-11-10T11:01:16.470Z,984.22
2016-11-10T11:02:25.165Z,984.22
2016-11-10T11:03:33.854Z,984.28
2016-11-10T11:04:42.547Z,984.26
2016-11-10T11:05:51.236Z,984.27
2016-11-10T11:06:59.923Z,984.26
2016-11-10T11:08:08.609Z,984.28
2016-11-10T11:09:17.301Z,984.31
2016-11-10T11:10:25.989Z,984.31
2016-11-10T11:11:34.677Z,984.33
2016-11-10T11:12:43.368Z,984.34
2016-11-10T11:13:52.059Z,984.36
2016-11-10T11:15:00.747Z,984.37
2016-11-10T11:16:09.434Z,984.39
2016-11-10T11:17:18.121Z,984.46
2016-11-10T11:18:26.809Z,984.44
2016-11-10T11:19:35.495Z,984.42
2016-11-10T11:20:44.192Z,984.43
2016-11-10T11:21:52.877Z,984.44
2016-11-10T11:23:01.567Z,984.45
2016-11-10T11:24:10.256Z,984.45
2016-11-10T11:25:18.944Z,984.46
2016-11-10T11:26:27.632Z,984.48
2016-11-10T11:27:36.314Z,984.5
2016-11-10T11:28:45.323Z,984.52
2016-11-10T11:29:54.016Z,984.51
2016-11-10T11:31:02.704Z,984.51
2016-11-10T11:32:11.392Z,984.53
2016-11-10T11:33:20.077Z,984.5
2016-11-10T11:34:28.773Z,984.52
2016-11-10T11:35:37.502Z,984.51
2016-11-10T11:36:46.204Z,984.53
2016-11-10T11:37:55.217Z,984.52
2016-11-10T11:39:03.908Z,984.56
2016-11-10T11:40:12.608Z,984.57
2016-11-10T11:41:21.302Z,984.56
2016-11-10T11:42:29.994Z,984.49
2016-11-10T11:43:38.681Z,984.51
2016-11-10T11:44:47.369Z,984.53
2016-11-10T11:45:56.052Z,984.5
2016-11-10T11:47:04.736Z,984.5
2016-11-10T11:48:13.426Z,984.47
2016-11-10T11:49:22.162Z,984.53
2016-11-10T11:50:30.853Z,984.48
2016-11-10T11:51:39.540Z,984.49
2016-11-10T11:52:48.230Z,984.51
2016-11-10T11:53:56.916Z,984.54
2016-11-10T11:55:05.605Z,984.52
2016-11-10T11:56:14.292Z,984.52
2016-11-10T11:57:22.977Z,984.52
2016-11-10T11:58:31.668Z,984.5
2016-11-10T11:59:40.395Z,984.47
2016-11-10T12:00:49.092Z,984.49
2016-11-10T12:01:57.789Z,984.43
2016-11-10T12:03:06.889Z,984.43
2016-11-10T12:04:15.582Z,984.45
2016-11-10T12:05:24.277Z,984.46
2016-11-10T12:06:32.968Z,984.51
2016-11-10T12:07:41.654Z,984.49
2016-11-10T12:08:50.339Z,984.49
2016-11-10T12:09:59.026Z,984.48
2016-11-10T12:11:07.713Z,984.56
2016-11-10T12:12:16.403Z,984.56
2016-11-10T12:13:25.093Z,984.53
2016-11-10T12:14:33.792Z,984.57
2016-11-10T12:15:42.479Z,984.55
2016-11-10T12:16:51.170Z,984.55
2016-11-10T12:17:59.862Z,984.56
2016-11-10T12:19:08.554Z,984.56
2016-11-10T12:20:17.251Z,984.53
2016-11-10T12:21:25.940Z,984.51
2016-11-10T12:22:34.630Z,984.54
2016-11-10T12:23:43.319Z,984.55
2016-11-10T12:24:52.007Z,984.58
2016-11-10T12:26:00.696Z,984.55
2016-11-10T12:27:09.390Z,984.51
2016-11-10T12:28:18.103Z,984.51
2016-11-10T12:29:26.791Z,984.53
2016-11-10T12:30:35.480Z,984.46
2016-11-10T12:31:44.170Z,984.47
2016-11-10T12:32:52.862Z,984.5
2016-11-10T12:34:01.552Z,984.5
2016-11-10T12:35:10.240Z,984.53
2016-11-10T12:36:18.927Z,984.52
2016-11-10T12:37:27.615Z,984.53
2016-11-10T12:38:36.300Z,984.57
2016-11-10T12:39:44.987Z,984.53
2016-11-10T12:40:53.672Z,984.57
2016-11-10T12:42:02.355Z,984.61
2016-11-10T12:43:11.042Z,984.57
2016-11-10T12:44:19.728Z,984.63
2016-11-10T12:45:28.419Z,984.64
2016-11-10T12:46:37.139Z,984.69
2016-11-10T12:47:45.834Z,984.69
2016-11-10T12:48:54.552Z,984.67
2016-11-10T12:50:03.235Z,984.66
2016-11-10T12:51:11.925Z,984.68
2016-11-10T12:52:20.636Z,984.62
2016-11-10T12:53:29.323Z,984.7
2016-11-10T12:54:38.010Z,984.72
2016-11-10T12:55:46.695Z,984.69
2016-11-10T12:56:55.409Z,984.73
2016-11-10T12:58:04.421Z,984.75
2016-11-10T12:59:13.108Z,984.73
2016-11-10T13:00:21.798Z,984.75
2016-11-10T13:01:30.482Z,984.74
2016-11-10T13:02:39.167Z,984.76
2016-11-10T13:03:47.855Z,984.77
2016-11-10T13:04:56.542Z,984.81
2016-11-10T13:06:05.228Z,984.8
2016-11-10T13:07:13.926Z,984.81
2016-11-10T13:08:22.613Z,984.8
2016-11-10T13:09:31.712Z,984.8
2016-11-10T13:10:40.403Z,984.8
2016-11-10T13:11:49.088Z,984.79
2016-11-10T13:12:57.833Z,984.81
2016-11-10T13:14:06.520Z,984.81
2016-11-10T13:15:15.206Z,984.76
2016-11-10T13:16:23.893Z,984.85
2016-11-10T13:17:32.595Z,984.79
2016-11-10T13:18:41.286Z,984.83
2016-11-10T13:19:49.972Z,984.83
2016-11-10T13:20:58.666Z,984.84
2016-11-10T13:22:07.355Z,984.86
2016-11-10T13:23:16.044Z,984.88
2016-11-10T13:24:24.776Z,984.93
2016-11-10T13:25:33.462Z,984.91
2016-11-10T13:26:42.155Z,984.92
2016-11-10T13:27:51.154Z,984.95
2016-11-10T13:28:59.843Z,984.98
2016-11-10T13:30:08.526Z,984.98
2016-11-10T13:31:17.211Z,985
2016-11-10T13:32:26.224Z,984.97
2016-11-10T13:33:34.907Z,984.98
2016-11-10T13:34:43.589Z,985.01
2016-11-10T13:35:52.281Z,985
2016-11-10T13:37:00.974Z,984.99
2016-11-10T13:38:09.662Z,985.05
2016-11-10T13:39:18.362Z,985.02
2016-11-10T13:40:27.049Z,985.03
2016-11-10T13:41:35.732Z,985.01
2016-11-10T13:42:44.428Z,985.03
2016-11-10T13:43:53.115Z,985.03
2016-11-10T13:45:01.856Z,985.04
2016-11-10T13:46:10.547Z,985.02
2016-11-10T13:47:19.235Z,985.03
2016-11-10T13:48:27.919Z,985.02
2016-11-10T13:49:36.618Z,984.99
2016-11-10T13:50:45.305Z,985.05
2016-11-10T13:51:53.995Z,985
2016-11-10T13:53:02.685Z,985.03
2016-11-10T13:54:11.371Z,985.04
2016-11-10T13:55:20.083Z,985.03
2016-11-10T13:56:28.775Z,985.07
2016-11-10T13:57:37.470Z,985.07
2016-11-10T13:58:46.166Z,985.1
2016-11-10T13:59:54.861Z,985.06
2016-11-10T14:01:03.555Z,985.09
2016-11-10T14:02:12.245Z,985.14
2016-11-10T14:03:20.931Z,985.13
2016-11-10T14:04:29.616Z,985.16
2016-11-10T14:05:38.336Z,985.17
2016-11-10T14:06:47.043Z,985.2
2016-11-10T14:07:55.731Z,985.15
2016-11-10T14:09:04.412Z,985.18
2016-11-10T14:10:13.102Z,985.16
2016-11-10T14:11:21.791Z,985.17
2016-11-10T14:12:30.480Z,985.16
2016-11-10T14:13:39.173Z,985.12
2016-11-10T14:14:47.860Z,985.14
2016-11-10T14:15:56.867Z,985.14
2016-11-10T14:17:05.556Z,985.15
2016-11-10T14:18:14.250Z,985.2
2016-11-10T14:19:22.939Z,985.17
2016-11-10T14:20:31.630Z,985.21
2016-11-10T14:21:40.321Z,985.18